In Rescue
 
Wind Gusting 00 knots
06
May 25, 2022 9:26 PM EDT
Weather Information
Wind Direction
  140 °
Wind Speed
  06 kt (7 mph)
Wind Gust
  00 kt (0 mph)
Altimeter
29.95 in
Visibility
10 SM
Temperature
21° C
70° F
Dewpoint
21° C
70° F
Humidity
100%
1hr Rain Fall
00.04 in.
24hr Rain Fall
00.57 in.
Sky Condition
Broken @ 4,900 ft
Scattered @ 4,300 ft
VFR

METAR KIMS 260126Z AUTO 14006KT 10SM SCT043 BKN049 21/21 A2995 RMK AO2 P0004

FAA Disclaimer: The data displayed is for advisory purposes only and is not to be used for flight planning or operations.